createdAt,value
2022-09-07T00:02:03.102Z,50.14
2022-09-07T00:04:29.298Z,50.70
2022-09-07T00:06:55.499Z,50.63
2022-09-07T00:09:21.642Z,50.82
2022-09-07T00:11:47.794Z,50.95
2022-09-07T00:14:13.971Z,50.94
2022-09-07T00:16:40.178Z,51.21
2022-09-07T00:19:06.354Z,50.80
2022-09-07T00:21:32.536Z,51.29
2022-09-07T00:23:58.682Z,51.41
2022-09-07T00:26:27.295Z,51.24
2022-09-07T00:28:57.559Z,51.22
2022-09-07T00:31:24.035Z,50.83
2022-09-07T00:33:51.825Z,50.67
2022-09-07T00:36:19.278Z,50.72
2022-09-07T00:38:45.784Z,50.25
2022-09-07T00:41:12.335Z,50.65
2022-09-07T00:43:41.147Z,50.75
2022-09-07T00:46:43.749Z,51.11
2022-09-07T00:49:16.145Z,50.90
2022-09-07T00:51:52.967Z,51.31
2022-09-07T00:54:28.045Z,50.94
2022-09-07T00:56:54.360Z,51.30
2022-09-07T00:59:26.807Z,51.26
2022-09-07T01:01:53.451Z,51.10
2022-09-07T01:04:22.239Z,51.79
2022-09-07T01:06:49.191Z,52.59
2022-09-07T01:09:18.739Z,52.89
2022-09-07T01:11:51.132Z,52.34
2022-09-07T01:14:21.591Z,52.79
2022-09-07T01:17:03.154Z,53.75
2022-09-07T01:19:53.297Z,53.89
2022-09-07T01:22:53.430Z,53.64
2022-09-07T01:25:44.260Z,54.43
2022-09-07T01:28:20.535Z,54.48
2022-09-07T01:31:11.651Z,54.84
2022-09-07T01:33:54.143Z,54.86
2022-09-07T01:36:44.891Z,55.24
2022-09-07T01:39:11.857Z,56.07
2022-09-07T01:41:52.284Z,56.00
2022-09-07T01:44:23.512Z,56.80
2022-09-07T01:47:01.557Z,56.76
2022-09-07T01:49:40.392Z,56.77
2022-09-07T01:52:22.527Z,57.44
2022-09-07T01:54:58.524Z,57.17
2022-09-07T01:57:36.485Z,57.70
2022-09-07T02:00:14.374Z,58.13
2022-09-07T02:02:55.405Z,57.53
2022-09-07T02:05:35.658Z,58.22
2022-09-07T02:08:16.493Z,58.43
2022-09-07T02:10:50.745Z,59.17
2022-09-07T02:13:20.599Z,58.90
2022-09-07T02:15:57.750Z,59.42
2022-09-07T02:18:26.693Z,59.06
2022-09-07T02:20:57.453Z,59.13
2022-09-07T02:23:30.707Z,59.95
2022-09-07T02:26:05.303Z,59.66
2022-09-07T02:28:36.681Z,59.81
2022-09-07T02:31:03.312Z,60.21
2022-09-07T02:33:29.811Z,60.10
2022-09-07T02:35:56.727Z,60.04
2022-09-07T02:38:22.918Z,60.24
2022-09-07T02:40:57.887Z,60.36
2022-09-07T02:43:25.630Z,60.71
2022-09-07T02:46:06.403Z,60.58
2022-09-07T02:48:49.983Z,61.13
2022-09-07T02:51:36.075Z,60.90
2022-09-07T02:54:29.526Z,60.95
2022-09-07T02:57:12.872Z,60.92
2022-09-07T03:00:04.370Z,61.31
2022-09-07T03:03:01.013Z,61.01
2022-09-07T03:05:42.340Z,61.58
2022-09-07T03:08:17.721Z,61.69
2022-09-07T03:10:44.506Z,61.82
2022-09-07T03:13:21.082Z,62.20
2022-09-07T03:15:47.375Z,62.17
2022-09-07T03:18:13.552Z,62.21
2022-09-07T03:20:39.703Z,62.04
2022-09-07T03:23:05.936Z,62.08
2022-09-07T03:25:32.089Z,62.38
2022-09-07T03:27:58.252Z,62.84
2022-09-07T03:30:24.481Z,63.01
2022-09-07T03:32:51.031Z,62.68
2022-09-07T03:35:17.994Z,63.20
2022-09-07T03:37:44.163Z,62.97
2022-09-07T03:40:12.230Z,63.09
2022-09-07T03:42:38.528Z,63.43
2022-09-07T03:45:06.641Z,63.60
2022-09-07T03:47:36.977Z,63.48
2022-09-07T03:50:04.677Z,63.39
2022-09-07T03:52:30.827Z,63.78
2022-09-07T03:54:56.977Z,63.49
2022-09-07T03:57:23.267Z,63.93
2022-09-07T03:59:50.691Z,63.74
2022-09-07T04:02:17.327Z,64.21
2022-09-07T04:04:46.066Z,64.14
2022-09-07T04:07:13.082Z,64.46
2022-09-07T04:09:39.231Z,64.82
2022-09-07T04:12:05.465Z,64.79
2022-09-07T04:14:31.608Z,65.35
2022-09-07T04:16:57.964Z,65.75
2022-09-07T04:34:42.010Z,66.55
2022-09-07T04:37:08.146Z,66.10
2022-09-07T04:39:34.356Z,66.04
2022-09-07T04:42:00.558Z,66.06
2022-09-07T04:44:26.718Z,66.47
2022-09-07T04:46:52.859Z,66.54
2022-09-07T04:49:20.391Z,66.82
2022-09-07T04:51:46.543Z,66.37
2022-09-07T04:54:12.789Z,66.33
2022-09-07T04:56:39.041Z,66.20
2022-09-07T04:59:05.227Z,65.92
2022-09-07T05:01:31.503Z,65.66
2022-09-07T05:04:00.754Z,65.48
2022-09-07T05:06:27.282Z,65.25
2022-09-07T05:08:54.431Z,65.04
2022-09-07T05:11:28.351Z,65.23
2022-09-07T05:14:03.083Z,64.71
2022-09-07T05:16:30.301Z,64.98
2022-09-07T05:18:59.573Z,64.94
2022-09-07T05:21:28.282Z,64.74
2022-09-07T05:23:56.677Z,64.51
2022-09-07T05:26:26.187Z,64.23
2022-09-07T05:28:52.696Z,64.20
2022-09-07T05:31:21.621Z,63.59
2022-09-07T05:36:37.402Z,63.21
2022-09-07T05:39:05.497Z,62.93
2022-09-07T05:41:31.982Z,62.65
2022-09-07T05:46:44.463Z,61.96
2022-09-07T05:49:10.654Z,61.86
2022-09-07T05:51:37.437Z,61.59
2022-09-07T05:54:03.939Z,60.98
2022-09-07T05:56:30.119Z,60.39
2022-09-07T05:58:56.284Z,60.35
2022-09-07T06:01:22.452Z,60.59
2022-09-07T06:03:48.617Z,60.21
2022-09-07T06:06:17.554Z,60.33
2022-09-07T06:08:46.162Z,59.63
2022-09-07T06:11:15.693Z,59.46
2022-09-07T06:13:42.995Z,59.76
2022-09-07T06:16:11.000Z,59.33
2022-09-07T06:18:39.990Z,59.07
2022-09-07T06:21:17.989Z,59.02
2022-09-07T06:23:45.523Z,58.26
2022-09-07T06:26:11.679Z,58.07
2022-09-07T06:28:40.188Z,58.15
2022-09-07T06:31:09.041Z,57.73
2022-09-07T06:33:36.298Z,57.95
2022-09-07T06:36:05.510Z,57.92
2022-09-07T06:38:33.610Z,57.77
2022-09-07T06:43:57.209Z,57.62
2022-09-07T06:49:10.339Z,57.17
2022-09-07T06:51:36.485Z,57.63
2022-09-07T06:56:48.846Z,57.00
2022-09-07T06:59:15.014Z,56.58
2022-09-07T07:01:41.225Z,56.33
2022-09-07T07:04:07.427Z,55.91
2022-09-07T07:06:38.414Z,55.96
2022-09-07T07:09:06.023Z,55.84
2022-09-07T07:11:32.174Z,55.77
2022-09-07T07:13:58.711Z,54.99
2022-09-07T07:16:24.947Z,55.34
2022-09-07T07:18:55.163Z,55.55
2022-09-07T07:21:21.523Z,55.80
2022-09-07T07:23:52.124Z,55.73
2022-09-07T07:26:26.802Z,55.33
2022-09-07T07:29:00.922Z,54.74
2022-09-07T07:31:28.684Z,55.27
2022-09-07T07:33:55.221Z,55.23
2022-09-07T07:36:26.229Z,54.86
2022-09-07T07:39:02.376Z,55.03
2022-09-07T07:44:17.782Z,54.51
2022-09-07T07:46:46.880Z,54.64
2022-09-07T07:49:13.033Z,54.45
2022-09-07T07:54:25.235Z,53.70
2022-09-07T07:56:51.355Z,53.02
2022-09-07T07:59:17.460Z,53.13
2022-09-07T08:01:43.991Z,53.05
2022-09-07T08:04:10.199Z,53.17
2022-09-07T08:06:37.067Z,52.87
2022-09-07T08:09:03.212Z,51.52
2022-09-07T08:11:31.332Z,51.20
2022-09-07T08:14:00.266Z,51.14
2022-09-07T08:16:26.501Z,50.77
2022-09-07T08:18:53.786Z,51.01
2022-09-07T08:21:19.943Z,51.10
2022-09-07T08:23:46.082Z,51.07
2022-09-07T08:26:12.441Z,50.78
2022-09-07T08:28:41.283Z,50.82
2022-09-07T08:31:10.260Z,50.34
2022-09-07T08:33:37.915Z,51.08
2022-09-07T08:36:07.728Z,49.66
2022-09-07T08:38:35.756Z,50.32
2022-09-07T08:41:03.956Z,50.19
2022-09-07T08:43:36.902Z,50.68
2022-09-07T08:46:25.914Z,50.42
2022-09-07T08:48:52.439Z,50.18
2022-09-07T08:51:42.121Z,50.10
2022-09-07T08:54:12.558Z,49.82
2022-09-07T08:57:20.642Z,50.22
2022-09-07T08:59:52.899Z,50.61
2022-09-07T09:02:40.206Z,50.21
2022-09-07T09:05:18.195Z,49.71
2022-09-07T09:08:11.986Z,49.42
2022-09-07T09:10:51.478Z,48.75
2022-09-07T09:13:22.385Z,48.72
2022-09-07T09:15:57.955Z,49.14
2022-09-07T09:18:46.379Z,48.71
2022-09-07T09:21:18.822Z,48.87
2022-09-07T09:23:50.085Z,48.45
2022-09-07T09:26:27.359Z,47.71
2022-09-07T09:28:53.756Z,47.57
2022-09-07T09:31:22.315Z,47.79
2022-09-07T09:34:08.509Z,47.36
2022-09-07T09:36:41.247Z,47.43
2022-09-07T09:39:31.850Z,46.63
2022-09-07T09:42:01.654Z,47.14
2022-09-07T09:44:34.760Z,47.49
2022-09-07T09:49:48.941Z,46.51
2022-09-07T09:52:42.198Z,45.78
2022-09-07T09:55:30.516Z,45.76
2022-09-07T10:03:55.863Z,44.56
2022-09-07T10:06:23.136Z,44.88
2022-09-07T10:08:56.524Z,44.78
2022-09-07T10:14:41.785Z,44.82
2022-09-07T10:17:23.059Z,45.10
2022-09-07T10:19:49.720Z,44.66
2022-09-07T10:22:36.919Z,44.47
2022-09-07T10:25:24.776Z,44.72
2022-09-07T10:28:10.216Z,44.83
2022-09-07T10:30:43.249Z,44.59
2022-09-07T10:33:20.961Z,45.19
2022-09-07T10:35:59.982Z,44.41
2022-09-07T10:38:30.808Z,44.50
2022-09-07T10:41:07.507Z,44.68
2022-09-07T10:43:42.340Z,44.69
2022-09-07T10:47:03.169Z,44.70
2022-09-07T10:52:43.951Z,45.64
2022-09-07T10:55:26.527Z,44.43
2022-09-07T10:58:15.882Z,44.88
2022-09-07T11:01:16.714Z,44.54
2022-09-07T11:03:58.411Z,44.30
2022-09-07T11:06:37.636Z,44.02
2022-09-07T11:09:40.023Z,43.91
2022-09-07T11:12:15.133Z,43.07
2022-09-07T11:15:04.694Z,43.28
2022-09-07T11:17:33.044Z,42.74
2022-09-07T11:20:15.477Z,43.31
2022-09-07T11:22:47.569Z,42.70
2022-09-07T11:25:35.605Z,42.87
2022-09-07T11:28:22.909Z,42.36
2022-09-07T11:31:00.035Z,42.67
2022-09-07T11:33:36.947Z,42.62
2022-09-07T11:36:12.543Z,42.86
2022-09-07T11:39:00.927Z,42.64
2022-09-07T11:41:34.051Z,42.49
2022-09-07T11:44:13.569Z,41.97
2022-09-07T11:46:51.210Z,41.46
2022-09-07T11:49:22.189Z,41.57
2022-09-07T11:51:54.090Z,40.42
2022-09-07T11:54:33.727Z,40.41
2022-09-07T11:57:35.536Z,40.09
2022-09-07T12:00:12.484Z,40.10
2022-09-07T12:03:01.083Z,40.27
2022-09-07T12:05:44.788Z,39.81
2022-09-07T12:08:51.557Z,39.19
2022-09-07T12:11:42.499Z,38.65
2022-09-07T12:14:21.487Z,39.36
2022-09-07T12:16:59.722Z,38.58
2022-09-07T12:19:27.441Z,38.63
2022-09-07T12:21:53.501Z,39.06
2022-09-07T12:24:37.999Z,38.86
2022-09-07T12:27:08.800Z,39.49
2022-09-07T12:29:34.944Z,39.81
2022-09-07T12:34:53.486Z,40.27
2022-09-07T12:37:39.389Z,40.37
2022-09-07T12:40:27.264Z,40.56
2022-09-07T12:43:15.012Z,40.73
2022-09-07T12:45:41.676Z,41.26
2022-09-07T12:48:17.003Z,40.66
2022-09-07T12:51:07.058Z,41.09
2022-09-07T12:54:16.790Z,41.05
2022-09-07T13:00:07.007Z,40.03
2022-09-07T13:03:04.806Z,40.00
2022-09-07T13:05:49.909Z,39.97
2022-09-07T13:08:30.368Z,39.74
2022-09-07T13:10:56.531Z,40.38
2022-09-07T13:16:14.096Z,42.63
2022-09-07T13:18:41.839Z,42.67
2022-09-07T13:21:08.117Z,42.59
2022-09-07T13:23:35.878Z,42.45
2022-09-07T13:26:03.614Z,42.83
2022-09-07T13:28:48.808Z,43.03
2022-09-07T13:31:33.775Z,42.82
2022-09-07T13:34:00.590Z,42.40
2022-09-07T13:36:39.372Z,42.26
2022-09-07T13:39:11.576Z,42.16
2022-09-07T13:41:43.371Z,41.93
2022-09-07T13:44:25.066Z,41.84
2022-09-07T13:47:20.263Z,42.40
2022-09-07T13:50:05.282Z,42.69
2022-09-07T13:53:05.648Z,42.40
2022-09-07T13:55:45.146Z,42.37
2022-09-07T13:58:18.131Z,42.14
2022-09-07T14:00:53.079Z,42.21
2022-09-07T14:03:19.959Z,42.36
2022-09-07T14:05:46.075Z,41.74
2022-09-07T14:08:29.603Z,41.45
2022-09-07T14:10:55.888Z,41.04
2022-09-07T14:13:22.166Z,40.57
2022-09-07T14:15:50.543Z,40.43
2022-09-07T14:18:22.378Z,40.04
2022-09-07T14:20:53.686Z,39.54
2022-09-07T14:23:31.002Z,39.46
2022-09-07T14:26:22.941Z,39.03
2022-09-07T14:28:52.632Z,39.16
2022-09-07T14:31:21.164Z,39.21
2022-09-07T14:33:54.983Z,39.00
2022-09-07T14:36:43.992Z,40.09
2022-09-07T14:39:13.091Z,39.72
2022-09-07T14:41:41.460Z,40.45
2022-09-07T14:44:27.427Z,39.72
2022-09-07T14:46:56.813Z,39.51
2022-09-07T14:49:23.762Z,38.60
2022-09-07T14:51:52.124Z,38.63
2022-09-07T14:54:22.439Z,38.98
2022-09-07T14:57:18.218Z,37.93
2022-09-07T14:59:46.212Z,38.03
2022-09-07T15:02:18.442Z,37.97
2022-09-07T15:04:45.901Z,38.39
2022-09-07T15:07:38.322Z,38.28
2022-09-07T15:10:32.500Z,38.20
2022-09-07T15:13:01.350Z,38.47
2022-09-07T15:15:37.645Z,38.26
2022-09-07T15:18:25.604Z,38.57
2022-09-07T15:20:52.884Z,38.71
2022-09-07T15:23:19.621Z,38.45
2022-09-07T15:25:52.071Z,38.62
2022-09-07T15:34:03.168Z,38.30
2022-09-07T15:36:31.958Z,38.11
2022-09-07T15:38:59.907Z,37.58
2022-09-07T15:41:27.792Z,38.02
2022-09-07T15:43:53.987Z,38.61
2022-09-07T15:46:20.165Z,39.96
2022-09-07T15:48:51.328Z,40.51
2022-09-07T15:54:12.171Z,41.22
2022-09-07T15:56:40.053Z,40.93
2022-09-07T15:59:06.416Z,41.78
2022-09-07T16:04:18.709Z,42.01
2022-09-07T16:06:47.880Z,41.65
2022-09-07T16:09:14.757Z,41.12
2022-09-07T16:11:40.866Z,40.70
2022-09-07T16:14:07.009Z,40.68
2022-09-07T16:19:20.855Z,41.38
2022-09-07T16:21:47.150Z,41.42
2022-09-07T16:24:13.262Z,41.40
2022-09-07T16:26:39.400Z,41.71
2022-09-07T16:29:05.537Z,41.76
2022-09-07T16:31:31.938Z,42.38
2022-09-07T16:33:58.231Z,42.63
2022-09-07T16:36:24.525Z,42.74
2022-09-07T16:38:59.178Z,43.42
2022-09-07T16:41:32.059Z,43.94
2022-09-07T16:43:59.094Z,44.33
2022-09-07T16:46:28.727Z,44.61
2022-09-07T16:48:55.292Z,44.90
2022-09-07T16:51:23.033Z,45.71
2022-09-07T16:53:50.951Z,46.55
2022-09-07T16:56:23.330Z,46.55
2022-09-07T16:58:52.528Z,47.82
2022-09-07T17:01:23.041Z,47.73
2022-09-07T17:03:50.158Z,48.15
2022-09-07T17:06:18.111Z,48.99
2022-09-07T17:08:44.776Z,48.96
2022-09-07T17:11:14.413Z,49.87
2022-09-07T17:13:41.799Z,49.83
2022-09-07T17:16:16.876Z,50.45
2022-09-07T17:21:33.278Z,49.72
2022-09-07T17:23:59.901Z,49.23
2022-09-07T17:26:27.517Z,48.38
2022-09-07T17:28:56.580Z,48.48
2022-09-07T17:34:15.336Z,48.38
2022-09-07T17:36:42.622Z,48.46
2022-09-07T17:39:24.243Z,49.25
2022-09-07T17:41:54.560Z,49.26
2022-09-07T17:44:23.689Z,49.66
2022-09-07T17:46:50.145Z,49.38
2022-09-07T17:49:16.996Z,50.25
2022-09-07T17:51:44.305Z,49.94
2022-09-07T17:54:14.825Z,50.15
2022-09-07T17:56:41.900Z,50.74
2022-09-07T18:01:55.549Z,51.15
2022-09-07T18:04:22.177Z,51.64
2022-09-07T18:06:48.544Z,51.14
2022-09-07T18:09:14.929Z,51.97
2022-09-07T18:11:45.496Z,51.91
2022-09-07T18:14:13.702Z,53.69
2022-09-07T18:16:40.446Z,54.10
2022-09-07T18:19:09.489Z,78.27
2022-09-07T18:21:37.193Z,97.96
2022-09-07T18:24:13.539Z,97.26
2022-09-07T18:26:40.164Z,97.72
2022-09-07T18:29:18.798Z,96.48
2022-09-07T18:31:53.943Z,95.58
2022-09-07T18:34:20.669Z,97.05
2022-09-07T18:36:46.956Z,98.86
2022-09-07T18:39:13.697Z,100.00
2022-09-07T18:41:40.982Z,100.00
2022-09-07T18:45:26.976Z,100.00
2022-09-07T18:46:53.541Z,100.00
2022-09-07T18:49:19.675Z,100.00
2022-09-07T18:54:32.063Z,100.00
2022-09-07T18:56:58.442Z,100.00
2022-09-07T18:59:24.637Z,100.00
2022-09-07T19:02:05.898Z,100.00
2022-09-07T19:07:30.097Z,100.00
2022-09-07T19:09:58.166Z,100.00
2022-09-07T19:12:24.975Z,100.00
2022-09-07T19:14:51.164Z,100.00
2022-09-07T19:17:18.048Z,100.00
2022-09-07T19:19:44.437Z,100.00
2022-09-07T19:22:10.766Z,100.00
2022-09-07T19:24:37.593Z,100.00
2022-09-07T19:27:03.825Z,100.00
2022-09-07T19:29:30.075Z,100.00
2022-09-07T19:32:05.399Z,100.00
2022-09-07T19:34:32.402Z,100.00
2022-09-07T19:36:58.909Z,100.00
2022-09-07T19:39:25.161Z,100.00
2022-09-07T19:41:51.280Z,100.00
2022-09-07T19:44:17.437Z,100.00
2022-09-07T19:46:45.213Z,100.00
2022-09-07T19:49:12.437Z,100.00
2022-09-07T19:51:40.226Z,100.00
2022-09-07T19:54:06.940Z,100.00
2022-09-07T19:56:33.320Z,100.00
2022-09-07T19:58:59.522Z,100.00
2022-09-07T20:01:25.942Z,100.00
2022-09-07T20:03:57.886Z,100.00
2022-09-07T20:06:24.161Z,100.00
2022-09-07T20:08:50.321Z,100.00
2022-09-07T20:11:17.780Z,100.00
2022-09-07T20:13:44.844Z,100.00
2022-09-07T20:16:13.913Z,100.00
2022-09-07T20:18:40.231Z,100.00
2022-09-07T20:21:11.565Z,100.00
2022-09-07T20:23:38.480Z,100.00
2022-09-07T20:26:07.839Z,100.00
2022-09-07T20:28:37.002Z,100.00
2022-09-07T20:31:22.858Z,100.00
2022-09-07T20:33:50.243Z,100.00
2022-09-07T20:36:21.329Z,100.00
2022-09-07T20:38:54.744Z,100.00
2022-09-07T20:41:29.302Z,100.00
2022-09-07T20:43:56.953Z,100.00
2022-09-07T20:46:23.154Z,100.00
2022-09-07T20:48:49.325Z,100.00
2022-09-07T20:51:20.815Z,100.00
2022-09-07T20:53:48.722Z,100.00
2022-09-07T20:56:23.073Z,100.00
2022-09-07T20:58:53.856Z,99.04
2022-09-07T21:01:32.763Z,98.32
2022-09-07T21:04:02.690Z,97.26
2022-09-07T21:06:34.936Z,96.30
2022-09-07T21:09:03.210Z,96.19
2022-09-07T21:11:35.522Z,94.71
2022-09-07T21:14:06.669Z,91.78
2022-09-07T21:16:33.852Z,90.80
2022-09-07T21:19:01.370Z,90.35
2022-09-07T21:21:29.071Z,90.47
2022-09-07T21:23:57.862Z,89.65
2022-09-07T21:26:24.671Z,89.09
2022-09-07T21:29:01.650Z,87.62
2022-09-07T21:31:38.591Z,86.56
2022-09-07T21:37:04.439Z,80.73
2022-09-07T21:39:30.853Z,79.48
2022-09-07T21:42:01.332Z,79.44
2022-09-07T21:44:27.602Z,77.74
2022-09-07T21:46:56.289Z,78.69
2022-09-07T21:49:22.988Z,77.58
2022-09-07T21:51:50.932Z,77.36
2022-09-07T21:54:17.124Z,77.82
2022-09-07T21:56:46.824Z,75.68
2022-09-07T21:59:13.336Z,75.13
2022-09-07T22:01:40.405Z,75.24
2022-09-07T22:04:10.069Z,75.84
2022-09-07T22:06:37.774Z,76.70
2022-09-07T22:09:05.066Z,77.22
2022-09-07T22:11:32.002Z,75.47
2022-09-07T22:14:03.084Z,73.01
2022-09-07T22:16:29.994Z,72.93
2022-09-07T22:18:56.277Z,73.11
2022-09-07T22:21:24.748Z,72.58
2022-09-07T22:23:53.168Z,71.18
2022-09-07T22:26:21.596Z,71.59
2022-09-07T22:28:48.607Z,71.06
2022-09-07T22:31:27.464Z,71.71
2022-09-07T22:33:54.717Z,71.07
2022-09-07T22:36:24.083Z,70.90
2022-09-07T22:38:53.627Z,69.66
2022-09-07T22:41:33.811Z,68.33
2022-09-07T22:44:00.869Z,68.65
2022-09-07T22:46:29.377Z,68.70
2022-09-07T22:48:58.338Z,68.60
2022-09-07T22:51:25.344Z,67.72
2022-09-07T22:53:51.782Z,66.72
2022-09-07T22:56:21.400Z,66.82
2022-09-07T22:58:59.464Z,65.56
2022-09-07T23:01:26.917Z,66.54
2022-09-07T23:03:53.542Z,66.51
2022-09-07T23:06:25.620Z,66.30
2022-09-07T23:08:52.901Z,65.57
2022-09-07T23:11:19.884Z,65.17
2022-09-07T23:13:46.093Z,66.46
2022-09-07T23:16:12.305Z,66.31
2022-09-07T23:18:40.757Z,66.32
2022-09-07T23:21:07.149Z,66.10
2022-09-07T23:23:33.328Z,66.00
2022-09-07T23:26:04.328Z,65.00
2022-09-07T23:28:30.979Z,64.54
2022-09-07T23:30:57.910Z,64.78
2022-09-07T23:33:26.183Z,64.74
2022-09-07T23:36:10.535Z,64.24
2022-09-07T23:38:36.652Z,64.98
2022-09-07T23:41:02.842Z,65.02
2022-09-07T23:43:30.297Z,64.23
2022-09-07T23:45:57.273Z,64.36
2022-09-07T23:48:24.203Z,63.51
2022-09-07T23:50:50.540Z,63.56
2022-09-07T23:53:18.034Z,64.01
2022-09-07T23:55:44.369Z,64.21
2022-09-07T23:58:10.498Z,63.55
